TAF KMOT
KMOT 270530Z 2706/2806 29010KT P6SM BKN090 FM270800 31010G19KT P6SM VCSH BKN080 FM271300 32015G25KT P6SM BKN120 FM272300 30010KT P6SM SCT250=
METAR KMOT
WC KMOT
WS KMOT
WV KMOT